DRT weather

Del Rio International Airport
Del Rio, Texas, United States

Public forecast

Using degrees Fahrenheit for public forecast. Weather courtesy of forecast.io.

Current aviation weather report (METAR) for Del Rio International Airport

Retrieved 2020/07/10 15:53 UTC (18 minutes ago):

KDRT 101553Z AUTO 12012KT 10SM CLR 33/23 A2996 RMK AO2 SLP127 T03280233

Aviation forecast (TAF) for Del Rio International Airport

Retrieved 2020/07/10 12:24 UTC (4 hours ago):

TAF KDRT 101121Z 1012/1112 11009KT P6SM SCT025 TEMPO 1012/1015 BKN025 FM101600 14012G22KT P6SM FEW040